Time;durP1;ratioP1;P1;durP2;ratioP2;P2;SDS_P1;SDS_P2;PMS_P1;PMS_P2;Temp;Humidity;BMP_temperature;BMP_pressure;BME280_temperature;BME280_humidity;BME280_pressure;Samples;Min_cycle;Max_cycle;Signal;HPM_P1;HPM_P2
2023/02/15 00:01:11;;;;;;;20.15;9.70;;;-2.10;99.90;;;;;;4929735;28;20639;-75
2023/02/15 00:03:39;;;;;;;22.95;9.82;;;-2.10;99.90;;;;;;4932794;29;20800;-75
2023/02/15 00:06:07;;;;;;;146.60;18.88;;;-2.10;99.90;;;;;;4948752;28;20054;-75
2023/02/15 00:08:35;;;;;;;31.85;8.98;;;-2.10;99.90;;;;;;4943329;29;20439;-76
2023/02/15 00:11:11;;;;;;;54.53;13.82;;;-2.10;99.90;;;;;;4949080;28;20397;-75
2023/02/15 00:13:42;;;;;;;21.30;11.45;;;-2.20;99.90;;;;;;4927536;29;20058;-75
2023/02/15 00:16:12;;;;;;;24.48;11.02;;;-2.20;99.90;;;;;;4949888;28;20051;-75
2023/02/15 00:18:39;;;;;;;52.63;8.85;;;-2.20;99.90;;;;;;4948583;28;20050;-75
2023/02/15 00:21:09;;;;;;;21.80;9.40;;;-2.20;99.90;;;;;;4932390;28;20066;-75
2023/02/15 00:23:37;;;;;;;97.22;11.95;;;-2.10;99.90;;;;;;4916295;29;20055;-75
2023/02/15 00:26:10;;;;;;;55.45;12.10;;;-2.10;99.90;;;;;;4900254;29;20047;-75
2023/02/15 00:28:39;;;;;;;41.60;11.00;;;-2.10;99.90;;;;;;4924975;28;20055;-75
2023/02/15 00:31:09;;;;;;;20.67;10.32;;;-2.10;99.90;;;;;;4911871;29;20431;-75
2023/02/15 00:33:38;;;;;;;55.83;12.23;;;-2.10;99.90;;;;;;4920575;29;20137;-75
2023/02/15 00:36:08;;;;;;;25.92;9.68;;;-2.10;99.90;;;;;;4931593;29;20058;-75
2023/02/15 00:38:36;;;;;;;29.63;10.27;;;-2.10;99.90;;;;;;4931188;28;20408;-75
2023/02/15 00:41:06;;;;;;;40.05;10.93;;;-2.10;99.90;;;;;;4930270;29;20050;-75
2023/02/15 00:43:34;;;;;;;46.22;11.40;;;-2.00;99.90;;;;;;4932118;29;20060;-76
2023/02/15 00:46:04;;;;;;;21.25;10.52;;;-2.00;99.90;;;;;;4912940;29;20051;-76
2023/02/15 00:48:32;;;;;;;27.40;9.82;;;-2.00;99.90;;;;;;4931947;28;20051;-76
2023/02/15 00:51:01;;;;;;;16.00;8.75;;;-2.00;99.90;;;;;;4917085;29;20435;-75
2023/02/15 00:53:29;;;;;;;15.52;9.95;;;-2.00;99.90;;;;;;4948472;28;20059;-75
2023/02/15 00:55:58;;;;;;;34.28;10.68;;;-2.00;99.90;;;;;;4924591;29;20054;-75
2023/02/15 00:58:26;;;;;;;30.25;10.32;;;-2.00;99.90;;;;;;4948288;28;20047;-76
2023/02/15 01:00:53;;;;;;;14.75;11.48;;;-2.00;99.90;;;;;;4931941;29;20048;-75
2023/02/15 01:03:24;;;;;;;23.63;11.48;;;-1.90;99.90;;;;;;4925900;29;20058;-75
2023/02/15 01:05:52;;;;;;;27.00;8.70;;;-1.90;99.90;;;;;;4947928;28;20040;-75
2023/02/15 01:08:20;;;;;;;18.27;10.40;;;-1.90;99.90;;;;;;4930943;28;20048;-76
2023/02/15 01:10:49;;;;;;;44.30;12.70;;;-1.90;99.90;;;;;;4919209;29;20058;-75
2023/02/15 01:13:17;;;;;;;40.90;12.32;;;-1.90;99.90;;;;;;4939608;28;20049;-76
2023/02/15 01:15:52;;;;;;;61.60;12.70;;;-1.90;99.90;;;;;;4932724;29;20047;-75
2023/02/15 01:18:20;;;;;;;81.82;12.57;;;-1.80;99.90;;;;;;4918811;29;20039;-75
2023/02/15 01:20:51;;;;;;;12.30;8.87;;;-2.00;99.90;;;;;;4935431;29;20427;-75
2023/02/15 01:23:19;;;;;;;19.00;10.32;;;-1.90;99.90;;;;;;4929146;29;20668;-76
2023/02/15 01:25:46;;;;;;;27.98;13.63;;;-1.90;99.90;;;;;;4940401;28;20047;-76
2023/02/15 01:28:14;;;;;;;40.53;11.40;;;-1.90;99.90;;;;;;4916056;29;20056;-76
2023/02/15 01:30:42;;;;;;;16.10;10.73;;;-1.90;99.90;;;;;;4916340;29;20043;-76
2023/02/15 01:33:17;;;;;;;53.90;11.80;;;-1.90;99.90;;;;;;4950139;28;20043;-75
2023/02/15 01:35:46;;;;;;;23.60;11.20;;;-1.90;99.90;;;;;;4934272;28;20058;-75
2023/02/15 01:38:14;;;;;;;19.75;11.25;;;-1.90;99.90;;;;;;4933627;29;20047;-76
2023/02/15 01:40:43;;;;;;;16.35;8.75;;;-1.90;99.90;;;;;;4933907;29;20058;-75
2023/02/15 01:43:12;;;;;;;15.90;9.23;;;-2.00;99.90;;;;;;4951666;28;20059;-75
2023/02/15 01:45:44;;;;;;;16.00;9.75;;;-1.90;99.90;;;;;;4930045;28;20139;-76
2023/02/15 01:48:25;;;;;;;20.90;8.65;;;-2.00;99.90;;;;;;4931080;29;20055;-75
2023/02/15 01:50:56;;;;;;;21.50;9.98;;;-2.00;99.90;;;;;;4914360;29;20420;-76
2023/02/15 01:53:36;;;;;;;34.20;10.55;;;-2.00;99.90;;;;;;4943144;28;20385;-76
2023/02/15 01:56:14;;;;;;;54.28;12.85;;;-2.00;99.90;;;;;;4945903;28;20056;-75
2023/02/15 01:58:45;;;;;;;23.05;11.45;;;-2.00;99.90;;;;;;4944921;28;20051;-76
2023/02/15 02:01:13;;;;;;;44.60;11.40;;;-2.00;99.90;;;;;;4933395;28;20046;-76
2023/02/15 02:03:57;;;;;;;41.78;12.35;;;-2.00;99.90;;;;;;4944441;28;20407;-75
2023/02/15 02:06:26;;;;;;;26.88;10.50;;;-2.00;99.90;;;;;;4931690;29;20433;-75
2023/02/15 02:08:55;;;;;;;22.92;10.52;;;-2.10;99.90;;;;;;4916332;29;20078;-76
2023/02/15 02:11:22;;;;;;;26.88;12.05;;;-2.00;99.90;;;;;;4910336;29;20066;-76
2023/02/15 02:13:53;;;;;;;32.95;11.20;;;-2.10;99.90;;;;;;4896311;29;20409;-75
2023/02/15 02:16:32;;;;;;;26.55;11.20;;;-2.00;99.90;;;;;;4910453;29;20058;-75
2023/02/15 02:19:08;;;;;;;39.72;13.35;;;-2.10;99.90;;;;;;4911398;29;20051;-76
2023/02/15 02:22:04;;;;;;;38.25;10.93;;;-2.00;99.90;;;;;;4922365;29;20055;-75
2023/02/15 02:25:03;;;;;;;32.53;11.40;;;-2.00;99.90;;;;;;4913698;29;20507;-76
2023/02/15 02:27:41;;;;;;;47.97;10.32;;;-2.00;99.90;;;;;;4914215;29;20063;-75
2023/02/15 02:30:35;;;;;;;6.30;5.85;;;-2.00;99.90;;;;;;4922528;28;20047;-75
2023/02/15 02:33:17;;;;;;;20.67;5.63;;;-2.00;99.90;;;;;;4927248;29;20047;-75
2023/02/15 02:36:03;;;;;;;24.40;9.90;;;-2.10;99.90;;;;;;4925603;29;20047;-75
2023/02/15 02:39:04;;;;;;;43.50;11.90;;;-2.20;99.90;;;;;;4944859;28;20039;-75
2023/02/15 02:42:09;;;;;;;24.67;11.13;;;-2.20;99.90;;;;;;4946125;28;20051;-75
2023/02/15 02:44:48;;;;;;;16.23;11.27;;;-2.10;99.90;;;;;;4913992;29;20715;-76
2023/02/15 02:47:19;;;;;;;14.45;8.52;;;-2.20;99.90;;;;;;4949066;28;20062;-76
2023/02/15 02:49:52;;;;;;;51.63;12.48;;;-2.20;99.90;;;;;;4931282;29;20082;-75
2023/02/15 02:52:41;;;;;;;72.97;12.57;;;-2.20;99.90;;;;;;4931317;28;20066;-76
2023/02/15 02:55:15;;;;;;;37.88;12.82;;;-2.20;99.90;;;;;;4940458;28;20039;-75
2023/02/15 02:58:07;;;;;;;64.88;14.23;;;-2.20;99.90;;;;;;4945050;29;20054;-76
2023/02/15 03:00:51;;;;;;;17.23;12.23;;;-2.20;99.90;;;;;;4916045;28;20055;-75
2023/02/15 03:03:37;;;;;;;24.75;12.30;;;-2.20;99.90;;;;;;4932548;29;20058;-75
2023/02/15 03:06:28;;;;;;;27.60;11.20;;;-2.20;99.90;;;;;;4948733;28;20058;-75
2023/02/15 03:09:41;;;;;;;21.90;9.65;;;-2.20;99.90;;;;;;4920278;29;20766;-75
2023/02/15 03:12:12;;;;;;;16.92;10.38;;;-2.20;99.90;;;;;;4927377;28;20404;-86
2023/02/15 03:14:46;;;;;;;11.57;8.50;;;-2.10;99.90;;;;;;4916887;29;20059;-86
2023/02/15 03:17:14;;;;;;;;;;;-2.10;99.90;;;;;;4933628;29;20413;-86
2023/02/15 03:19:44;;;;;;;63.47;14.10;;;-2.10;99.90;;;;;;4933231;28;19937;-87
2023/02/15 03:22:19;;;;;;;28.65;11.45;;;-2.10;99.90;;;;;;4943349;28;20047;-86
2023/02/15 03:24:50;;;;;;;46.92;11.10;;;-2.10;99.90;;;;;;4945054;28;20047;-86
2023/02/15 03:27:20;;;;;;;;;;;-2.20;99.90;;;;;;4946854;28;20059;-86
2023/02/15 03:29:52;;;;;;;34.88;10.68;;;-2.10;99.90;;;;;;4926201;28;19926;-86
2023/02/15 03:32:20;;;;;;;36.90;10.50;;;-2.20;99.90;;;;;;4932475;28;20051;-86
2023/02/15 03:34:49;;;;;;;74.45;7.68;;;-2.30;99.90;;;;;;4950334;28;20080;-86
2023/02/15 03:37:38;;;;;;;18.98;10.30;;;-2.30;99.90;;;;;;4949112;28;20043;-86
2023/02/15 03:43:30;;;;;;;17.17;10.35;;;-2.20;99.90;;;;;;4911623;29;20062;-86
2023/02/15 03:46:06;;;;;;;27.52;10.52;;;-2.30;99.90;;;;;;4951228;28;20047;-86
2023/02/15 03:48:42;;;;;;;15.57;9.82;;;-2.30;99.90;;;;;;4930916;29;20487;-86
2023/02/15 03:51:33;;;;;;;32.28;12.68;;;-2.30;99.90;;;;;;4929048;28;20051;-86
2023/02/15 03:54:38;;;;;;;34.05;9.98;;;-2.30;99.90;;;;;;4942710;28;20047;-86
2023/02/15 04:03:04;;;;;;;11.75;8.70;;;-2.40;99.90;;;;;;4940235;28;20063;-86
2023/02/15 04:05:33;;;;;;;24.88;10.93;;;-2.40;99.90;;;;;;4943304;28;20089;-86
2023/02/15 04:08:01;;;;;;;19.13;11.07;;;-2.40;99.90;;;;;;4948760;28;20051;-86
2023/02/15 04:13:16;;;;;;;16.17;10.15;;;-2.30;99.90;;;;;;4946699;28;20047;-86
2023/02/15 04:27:05;;;;;;;66.68;13.07;;;-2.50;99.90;;;;;;4908973;28;20066;-86
2023/02/15 04:29:33;;;;;;;36.20;11.52;;;-2.40;99.90;;;;;;4946553;29;20062;-87
2023/02/15 04:32:02;;;;;;;17.90;9.75;;;-2.40;99.90;;;;;;4945660;28;20043;-86
2023/02/15 04:34:29;;;;;;;15.75;9.25;;;-2.40;99.90;;;;;;4951144;28;20047;-86
2023/02/15 04:36:57;;;;;;;20.45;11.55;;;-2.50;99.90;;;;;;4915461;29;20039;-86
2023/02/15 04:39:24;;;;;;;57.22;11.23;;;-2.50;99.90;;;;;;4940839;28;20059;-85
2023/02/15 04:41:52;;;;;;;58.22;13.75;;;-2.60;99.90;;;;;;4947032;28;20066;-85
2023/02/15 04:44:20;;;;;;;24.38;11.93;;;-2.70;99.90;;;;;;4937031;28;20062;-85
2023/02/15 04:46:47;;;;;;;16.15;9.02;;;-2.70;99.90;;;;;;4913013;29;20060;-86
2023/02/15 04:49:15;;;;;;;80.95;12.43;;;-2.70;99.90;;;;;;4894742;29;20059;-86
2023/02/15 04:51:54;;;;;;;20.00;10.15;;;-2.70;99.90;;;;;;4897840;29;20052;-86
2023/02/15 04:54:22;;;;;;;70.60;13.00;;;-2.70;99.90;;;;;;4897414;29;20082;-85
2023/02/15 04:56:49;;;;;;;79.25;11.85;;;-2.80;99.90;;;;;;4914353;29;20047;-85
2023/02/15 04:59:18;;;;;;;17.27;9.25;;;-2.80;99.90;;;;;;4905680;29;20044;-85
2023/02/15 05:01:45;;;;;;;21.08;14.60;;;-2.80;99.90;;;;;;4900570;29;20044;-85
2023/02/15 05:04:13;;;;;;;21.73;10.73;;;-2.80;99.90;;;;;;4917680;29;20055;-86
2023/02/15 05:06:41;;;;;;;31.17;11.30;;;-2.70;99.90;;;;;;4902327;29;20059;-86
2023/02/15 05:09:11;;;;;;;61.90;11.75;;;-2.70;99.90;;;;;;4916164;29;20048;-85
2023/02/15 05:11:39;;;;;;;22.95;9.95;;;-2.80;99.90;;;;;;4925728;29;20047;-86
2023/02/15 05:14:07;;;;;;;60.00;14.57;;;-2.80;99.90;;;;;;4940849;29;20035;-85
2023/02/15 05:16:35;;;;;;;24.90;9.52;;;-2.70;99.90;;;;;;4957430;28;20043;-86
2023/02/15 05:19:02;;;;;;;63.60;12.50;;;-2.80;99.90;;;;;;4956678;28;20055;-85
2023/02/15 05:28:48;;;;;;;28.58;12.93;;;-2.80;99.90;;;;;;4940649;29;20047;-85
2023/02/15 05:31:19;;;;;;;46.38;10.18;;;-2.80;99.90;;;;;;4962721;28;20051;-85
2023/02/15 05:33:47;;;;;;;68.63;15.60;;;-2.90;99.90;;;;;;4970642;28;20045;-85
2023/02/15 05:36:15;;;;;;;61.95;11.05;;;-2.90;99.90;;;;;;4959429;28;20058;-85
2023/02/15 05:38:42;;;;;;;39.25;9.55;;;-2.90;99.90;;;;;;4939305;29;20537;-85
2023/02/15 05:41:11;;;;;;;43.08;8.73;;;-2.90;99.90;;;;;;4927183;29;20043;-85
2023/02/15 05:43:39;;;;;;;34.53;9.93;;;-2.90;99.90;;;;;;4938876;29;20417;-85
2023/02/15 05:46:07;;;;;;;16.42;13.82;;;-2.90;99.90;;;;;;4946723;29;20043;-85
2023/02/15 05:48:35;;;;;;;83.35;13.30;;;-2.90;99.90;;;;;;4937705;29;20109;-84
2023/02/15 05:51:08;;;;;;;73.05;12.00;;;-2.80;99.90;;;;;;4965504;28;20043;-85
2023/02/15 05:53:39;;;;;;;16.70;11.15;;;-2.70;99.90;;;;;;4975237;28;20039;-85
2023/02/15 05:56:10;;;;;;;18.05;9.43;;;-2.70;99.90;;;;;;4958000;28;20043;-84
2023/02/15 05:58:42;;;;;;;21.35;10.00;;;-2.70;99.90;;;;;;4943929;28;20049;-84
2023/02/15 06:01:18;;;;;;;16.20;9.48;;;-2.80;99.90;;;;;;4975282;28;20039;-83
2023/02/15 06:03:45;;;;;;;15.25;9.85;;;-2.80;99.90;;;;;;4947078;28;20053;-84
2023/02/15 06:06:13;;;;;;;19.75;8.85;;;-2.90;99.90;;;;;;4976518;28;20043;-84
2023/02/15 06:08:44;;;;;;;39.17;11.35;;;-2.90;99.90;;;;;;4954052;28;20039;-84
2023/02/15 06:11:12;;;;;;;19.05;10.57;;;-2.90;99.90;;;;;;4977711;28;20062;-83
2023/02/15 06:13:40;;;;;;;12.77;8.15;;;-2.80;99.90;;;;;;4976593;28;20047;-85
2023/02/15 06:16:08;;;;;;;16.42;11.07;;;-2.70;99.90;;;;;;4978162;28;20039;-83
2023/02/15 06:18:36;;;;;;;44.65;9.60;;;-2.70;99.90;;;;;;4976896;28;20038;-84
2023/02/15 06:21:04;;;;;;;15.95;9.68;;;-2.60;99.90;;;;;;4977048;28;20039;-83
2023/02/15 06:23:32;;;;;;;24.25;12.15;;;-2.70;99.90;;;;;;4972281;28;20039;-84
2023/02/15 06:25:59;;;;;;;19.38;11.40;;;-2.70;99.90;;;;;;4977218;28;20039;-84
2023/02/15 06:28:27;;;;;;;65.15;10.30;;;-2.70;99.90;;;;;;4970658;28;20050;-84
2023/02/15 06:30:55;;;;;;;16.67;11.00;;;-2.70;99.90;;;;;;4961043;28;20294;-84
2023/02/15 06:33:23;;;;;;;33.30;11.57;;;-2.80;99.90;;;;;;4974408;28;20123;-83
2023/02/15 06:35:51;;;;;;;13.43;9.18;;;-2.80;99.90;;;;;;4954193;28;20043;-83
2023/02/15 06:38:18;;;;;;;14.98;11.38;;;-2.80;99.90;;;;;;4974503;28;20314;-84
2023/02/15 06:40:46;;;;;;;88.32;12.02;;;-2.80;99.90;;;;;;4966120;28;20034;-84
2023/02/15 06:43:14;;;;;;;16.45;9.43;;;-2.90;99.90;;;;;;4952563;28;20761;-84
2023/02/15 06:45:42;;;;;;;10.85;7.68;;;-2.80;99.90;;;;;;4952358;28;20051;-84
2023/02/15 06:48:12;;;;;;;80.13;12.50;;;-2.80;99.90;;;;;;4950505;28;20047;-84
2023/02/15 06:50:39;;;;;;;30.85;10.95;;;-2.80;99.90;;;;;;4944142;28;20058;-84
2023/02/15 06:53:07;;;;;;;17.25;8.82;;;-2.80;99.90;;;;;;4941821;28;20059;-84
2023/02/15 06:55:35;;;;;;;17.27;9.40;;;-2.80;99.90;;;;;;4926394;29;20059;-84
2023/02/15 06:58:02;;;;;;;33.13;11.65;;;-2.80;99.90;;;;;;4948524;28;20396;-84
2023/02/15 07:00:30;;;;;;;16.42;9.80;;;-2.70;99.90;;;;;;4948637;28;20051;-84
2023/02/15 07:02:58;;;;;;;30.25;10.07;;;-2.80;99.90;;;;;;4925841;29;20059;-84
2023/02/15 07:05:30;;;;;;;22.38;11.70;;;-2.80;99.90;;;;;;4928219;28;20035;-83
2023/02/15 07:08:00;;;;;;;133.07;17.67;;;-2.70;99.90;;;;;;4947275;28;20051;-84
2023/02/15 07:10:28;;;;;;;70.05;11.05;;;-2.50;99.90;;;;;;4933808;28;20047;-85
2023/02/15 07:12:56;;;;;;;41.20;10.57;;;-2.60;99.90;;;;;;4930708;29;20682;-84
2023/02/15 07:15:24;;;;;;;32.28;8.70;;;-2.60;99.90;;;;;;4948940;28;20086;-84
2023/02/15 07:17:51;;;;;;;25.17;10.55;;;-2.50;99.90;;;;;;4948012;28;20058;-85
2023/02/15 07:20:21;;;;;;;15.23;7.18;;;-2.60;99.90;;;;;;4931204;28;20051;-84
2023/02/15 07:22:50;;;;;;;76.85;13.50;;;-2.50;99.90;;;;;;4948015;28;20047;-84
2023/02/15 07:25:18;;;;;;;18.05;7.72;;;-2.60;99.90;;;;;;4921564;28;20047;-85
2023/02/15 07:27:46;;;;;;;24.00;8.80;;;-2.60;99.90;;;;;;4921089;29;20047;-84
2023/02/15 07:30:17;;;;;;;66.25;10.80;;;-2.50;99.90;;;;;;4926729;29;20062;-84
2023/02/15 07:35:33;;;;;;;38.20;9.93;;;-2.50;99.90;;;;;;4943367;28;20051;-85
2023/02/15 07:38:01;;;;;;;17.83;7.88;;;-2.50;99.90;;;;;;4943552;28;20051;-84
2023/02/15 07:40:34;;;;;;;19.33;11.17;;;-2.60;99.90;;;;;;4943592;28;20059;-85
2023/02/15 07:43:02;;;;;;;18.48;10.40;;;-2.50;99.90;;;;;;4936939;28;20056;-84
2023/02/15 07:45:30;;;;;;;29.38;10.05;;;-2.40;99.90;;;;;;4942149;28;20055;-85
2023/02/15 07:48:00;;;;;;;36.47;8.85;;;-2.50;99.90;;;;;;4930346;29;20047;-84
2023/02/15 07:50:28;;;;;;;24.45;9.10;;;-2.50;99.90;;;;;;4944365;28;20074;-85
2023/02/15 07:52:56;;;;;;;87.50;12.05;;;-2.50;99.90;;;;;;4940687;28;20055;-85
2023/02/15 07:55:24;;;;;;;119.70;16.85;;;-2.50;99.90;;;;;;4937951;28;20455;-84
2023/02/15 07:57:53;;;;;;;14.70;8.55;;;-2.40;99.90;;;;;;4935040;28;20745;-84
2023/02/15 08:00:25;;;;;;;58.85;12.52;;;-2.40;99.90;;;;;;4942593;28;20364;-84
2023/02/15 08:03:13;;;;;;;28.08;11.30;;;-2.40;99.90;;;;;;4942184;29;20058;-84
2023/02/15 08:05:43;;;;;;;22.58;10.05;;;-2.30;99.90;;;;;;4943904;28;20054;-84
2023/02/15 08:08:29;;;;;;;27.88;8.40;;;-2.20;99.90;;;;;;4926726;29;20051;-84
2023/02/15 08:11:39;;;;;;;19.48;11.00;;;-2.20;99.90;;;;;;4923418;28;20054;-84
2023/02/15 08:14:10;;;;;;;48.10;10.82;;;-2.20;99.90;;;;;;4934846;28;20051;-84
2023/02/15 08:16:40;;;;;;;25.20;11.23;;;-2.10;99.90;;;;;;4928352;28;20068;-84
2023/02/15 08:19:20;;;;;;;45.20;7.88;;;-2.00;99.90;;;;;;4930454;29;20548;-84
2023/02/15 08:21:50;;;;;;;37.03;9.68;;;-2.00;99.90;;;;;;4927839;29;20420;-84
2023/02/15 08:24:20;;;;;;;7.00;6.18;;;-2.00;99.90;;;;;;4944449;28;20062;-82
2023/02/15 08:26:49;;;;;;;33.27;10.00;;;-2.00;99.90;;;;;;4943238;28;20055;-84
2023/02/15 08:29:21;;;;;;;78.65;12.65;;;-2.10;99.90;;;;;;4923742;29;20294;-84
2023/02/15 08:32:01;;;;;;;85.78;11.20;;;-1.90;99.90;;;;;;4944565;29;20059;-84
2023/02/15 08:34:32;;;;;;;29.42;9.60;;;-1.90;99.90;;;;;;4941553;28;20043;-84
2023/02/15 08:37:01;;;;;;;21.33;9.45;;;-2.00;99.90;;;;;;4937579;28;20046;-84
2023/02/15 08:39:29;;;;;;;16.70;10.05;;;-1.90;99.90;;;;;;4918631;29;20052;-84
2023/02/15 08:41:56;;;;;;;12.63;10.30;;;-1.80;99.90;;;;;;4923055;29;20663;-83
2023/02/15 08:44:24;;;;;;;23.92;8.63;;;-1.60;99.90;;;;;;4939689;28;20196;-84
2023/02/15 08:46:52;;;;;;;69.50;11.20;;;-1.40;99.90;;;;;;4935489;28;20060;-84
2023/02/15 08:49:22;;;;;;;41.70;11.82;;;-1.50;99.90;;;;;;4936132;28;20046;-84
2023/02/15 08:51:57;;;;;;;15.57;8.75;;;-1.50;99.90;;;;;;4938408;28;20055;-84
2023/02/15 08:54:27;;;;;;;35.55;9.48;;;-1.50;99.90;;;;;;4935346;28;20407;-83
2023/02/15 08:56:55;;;;;;;54.53;8.60;;;-1.50;99.90;;;;;;4922120;29;20040;-84
2023/02/15 08:59:23;;;;;;;20.98;8.68;;;-1.50;99.90;;;;;;4938243;28;20055;-84
2023/02/15 09:01:52;;;;;;;25.45;11.23;;;-1.50;99.90;;;;;;4928234;28;20060;-85
2023/02/15 09:04:22;;;;;;;15.48;8.85;;;-1.40;99.90;;;;;;4938391;28;20740;-85
2023/02/15 09:06:51;;;;;;;33.67;9.05;;;-1.20;99.90;;;;;;4906341;29;20063;-85
2023/02/15 09:09:20;;;;;;;14.80;8.52;;;-1.20;99.90;;;;;;4934397;28;20047;-85
2023/02/15 09:11:51;;;;;;;12.68;8.50;;;-1.10;99.90;;;;;;4941154;28;20055;-86
2023/02/15 09:14:26;;;;;;;23.80;9.25;;;-1.10;99.90;;;;;;4935994;28;20056;-86
2023/02/15 09:16:54;;;;;;;13.57;9.43;;;-1.00;99.90;;;;;;4906639;29;20051;-85
2023/02/15 09:19:23;;;;;;;15.15;9.60;;;-0.90;99.90;;;;;;4912295;29;20058;-86
2023/02/15 09:21:51;;;;;;;17.02;8.32;;;-0.80;99.90;;;;;;4942597;28;20051;-86
2023/02/15 09:24:19;;;;;;;25.50;9.77;;;-0.80;99.90;;;;;;4937182;28;20058;-86
2023/02/15 09:26:48;;;;;;;16.15;8.60;;;-0.80;99.90;;;;;;4940305;29;20710;-87
2023/02/15 09:29:17;;;;;;;25.35;8.52;;;-0.90;99.90;;;;;;4912824;29;20035;-87
2023/02/15 09:31:48;;;;;;;27.65;9.07;;;-0.90;99.90;;;;;;4949954;28;20043;-87
2023/02/15 09:34:18;;;;;;;62.20;11.38;;;-1.00;99.90;;;;;;4913293;29;20708;-88
2023/02/15 09:36:47;;;;;;;7.13;6.43;;;-0.90;99.90;;;;;;4943729;28;20043;-88
2023/02/15 09:39:17;;;;;;;40.40;11.93;;;-0.70;99.90;;;;;;4927546;28;20487;-88
2023/02/15 09:41:54;;;;;;;12.00;8.95;;;-0.70;99.90;;;;;;4947968;28;20043;-88
2023/02/15 09:44:58;;;;;;;18.13;9.75;;;-0.80;99.90;;;;;;4924352;29;20058;-88
2023/02/15 09:47:51;;;;;;;28.85;9.73;;;-0.80;99.90;;;;;;4953067;28;20389;-89
2023/02/15 09:50:33;;;;;;;55.47;13.10;;;-0.70;99.90;;;;;;4948554;28;20047;-89
2023/02/15 09:53:30;;;;;;;17.35;9.60;;;-0.60;99.90;;;;;;4948434;28;20055;-87
2023/02/15 09:56:06;;;;;;;24.02;10.18;;;-0.60;99.90;;;;;;4947458;28;20069;-89
2023/02/15 09:59:11;;;;;;;15.95;9.18;;;-0.40;99.90;;;;;;4948296;28;20761;-88
2023/02/15 10:01:39;;;;;;;21.15;10.43;;;-0.20;99.90;;;;;;4942520;29;20059;-87
2023/02/15 10:04:19;;;;;;;15.57;9.82;;;0.00;99.90;;;;;;4943933;28;20051;-88
2023/02/15 10:07:32;;;;;;;15.82;9.43;;;0.10;99.90;;;;;;4944912;28;20066;-89
2023/02/15 10:10:40;;;;;;;16.67;10.52;;;0.20;99.90;;;;;;4923302;28;20396;-88
2023/02/15 10:13:21;;;;;;;16.13;10.43;;;0.10;99.90;;;;;;4932416;29;20460;-89
2023/02/15 10:16:07;;;;;;;15.38;8.45;;;0.10;99.90;;;;;;4943405;29;20055;-87
2023/02/15 10:18:59;;;;;;;15.65;10.70;;;0.00;99.90;;;;;;4925594;28;20055;-89
2023/02/15 10:21:40;;;;;;;16.73;10.98;;;-0.10;99.90;;;;;;4913121;29;20047;-89
2023/02/15 10:24:28;;;;;;;15.60;10.70;;;0.10;99.90;;;;;;4948231;28;20411;-88
2023/02/15 10:27:12;;;;;;;12.82;8.18;;;0.30;99.90;;;;;;4916608;29;20051;-88
2023/02/15 10:29:51;;;;;;;16.52;9.32;;;0.40;99.90;;;;;;4947631;28;20047;-88
2023/02/15 10:32:23;;;;;;;18.48;11.30;;;0.60;99.90;;;;;;4948953;28;20357;-88
2023/02/15 10:35:08;;;;;;;8.57;5.63;;;0.60;99.90;;;;;;4931846;29;20047;-88
2023/02/15 10:37:38;;;;;;;14.70;8.70;;;0.80;99.90;;;;;;4927604;29;20043;-87
2023/02/15 10:40:24;;;;;;;14.95;10.68;;;0.90;99.90;;;;;;4927108;28;20054;-88
2023/02/15 10:43:13;;;;;;;18.98;10.07;;;1.20;99.90;;;;;;4927642;28;20460;-88
2023/02/15 10:45:57;;;;;;;18.70;11.98;;;1.40;99.90;;;;;;4917572;29;20074;-88
2023/02/15 10:48:52;;;;;;;19.50;10.98;;;1.40;99.90;;;;;;4926938;28;20051;-87
2023/02/15 10:51:27;;;;;;;14.43;10.38;;;1.50;99.90;;;;;;4945205;28;20054;-89
2023/02/15 10:54:20;;;;;;;14.82;11.27;;;1.30;99.90;;;;;;4922917;29;20051;-88
2023/02/15 10:57:07;;;;;;;18.20;12.30;;;1.50;99.90;;;;;;4940268;29;20659;-88
2023/02/15 10:59:59;;;;;;;16.23;13.30;;;1.70;99.90;;;;;;4908810;29;20060;-88
2023/02/15 11:02:39;;;;;;;16.10;12.00;;;1.80;99.90;;;;;;4942308;28;20491;-88
2023/02/15 11:05:26;;;;;;;18.63;11.82;;;2.00;99.90;;;;;;4941596;28;20040;-88
2023/02/15 11:07:57;;;;;;;14.65;10.25;;;2.00;99.90;;;;;;4928781;29;20043;-88
2023/02/15 11:11:01;;;;;;;17.50;12.77;;;2.00;99.90;;;;;;4943680;28;20051;-90
2023/02/15 11:13:34;;;;;;;16.73;10.00;;;2.00;99.90;;;;;;4931390;29;20202;-88
2023/02/15 11:16:05;;;;;;;16.85;10.93;;;1.90;99.90;;;;;;4927637;28;20043;-88
2023/02/15 11:18:41;;;;;;;21.23;12.80;;;2.10;99.90;;;;;;4931553;28;20049;-90
2023/02/15 11:21:27;;;;;;;13.07;9.45;;;2.30;99.90;;;;;;4945735;28;20196;-91
2023/02/15 11:23:55;;;;;;;19.48;13.80;;;2.30;99.90;;;;;;4928382;29;20058;-91
2023/02/15 11:27:14;;;;;;;15.80;10.77;;;2.20;99.90;;;;;;4940090;28;20051;-91
2023/02/15 11:30:10;;;;;;;12.80;10.55;;;2.40;99.90;;;;;;4907920;29;20050;-90
2023/02/15 11:32:41;;;;;;;18.27;11.38;;;2.70;99.90;;;;;;4944061;28;20062;-90
2023/02/15 11:35:12;;;;;;;17.88;13.18;;;2.90;99.90;;;;;;4919253;29;20059;-91
2023/02/15 11:38:07;;;;;;;14.57;11.10;;;2.90;99.90;;;;;;4953646;29;20065;-91
2023/02/15 11:40:49;;;;;;;21.25;13.50;;;2.60;99.90;;;;;;4954970;28;20059;-92
2023/02/15 11:43:27;;;;;;;16.17;12.18;;;2.40;99.90;;;;;;4956128;29;20075;-91
2023/02/15 11:45:55;;;;;;;18.00;12.65;;;2.60;99.90;;;;;;4953392;28;20047;-91
2023/02/15 11:48:24;;;;;;;20.17;12.27;;;2.60;99.90;;;;;;4922227;29;20055;-94
2023/02/15 11:56:14;;;;;;;14.70;12.75;;;2.60;99.90;;;;;;4930743;29;20055;-91
2023/02/15 11:59:11;;;;;;;18.65;12.43;;;2.90;99.90;;;;;;4936295;29;20054;-90
2023/02/15 12:01:45;;;;;;;21.95;13.98;;;3.00;99.90;;;;;;4936694;29;20043;-91
2023/02/15 12:04:38;;;;;;;14.40;11.35;;;3.10;99.90;;;;;;4927190;29;20055;-91
2023/02/15 12:07:44;;;;;;;16.75;11.00;;;3.20;99.90;;;;;;4939646;29;20047;-89
2023/02/15 12:10:36;;;;;;;19.83;14.13;;;3.40;99.90;;;;;;4952685;29;20051;-89
2023/02/15 12:13:18;;;;;;;21.63;13.52;;;3.50;99.90;;;;;;4954284;28;20054;-89
2023/02/15 12:15:50;;;;;;;16.60;11.32;;;3.70;99.90;;;;;;4955282;29;20043;-90
2023/02/15 12:18:23;;;;;;;;;;;3.80;99.90;;;;;;4953832;29;20062;-88
2023/02/15 12:25:54;;;;;;;16.67;12.00;;;4.20;99.90;;;;;;4953652;29;20046;-89
2023/02/15 12:28:31;;;;;;;17.42;11.77;;;4.40;99.90;;;;;;4951563;28;20054;-89
2023/02/15 12:31:00;;;;;;;16.80;12.23;;;4.70;99.90;;;;;;4955007;29;20047;-88
2023/02/15 12:33:44;;;;;;;16.42;12.15;;;4.80;99.90;;;;;;4954062;29;20047;-89
2023/02/15 12:36:19;;;;;;;15.57;11.07;;;4.90;99.90;;;;;;4937045;29;20047;-88
2023/02/15 12:39:02;;;;;;;15.80;11.15;;;4.90;99.90;;;;;;4953041;29;20050;-87
2023/02/15 12:41:30;;;;;;;13.88;9.30;;;5.10;99.90;;;;;;4953971;29;20050;-87
2023/02/15 12:44:18;;;;;;;14.13;9.52;;;5.00;99.90;;;;;;4954507;29;20147;-87
2023/02/15 12:47:18;;;;;;;14.88;10.52;;;5.20;99.90;;;;;;4940269;29;20046;-89
2023/02/15 12:50:22;;;;;;;13.15;8.60;;;5.40;99.90;;;;;;4948805;28;20054;-88
2023/02/15 12:53:41;;;;;;;15.02;10.40;;;5.60;99.90;;;;;;4969655;28;20051;-88
2023/02/15 12:56:11;;;;;;;18.08;10.32;;;5.70;99.90;;;;;;4911043;29;20039;-87
2023/02/15 12:58:41;;;;;;;13.00;9.25;;;5.80;99.90;;;;;;4960268;28;20044;-87
2023/02/15 13:01:15;;;;;;;15.38;10.98;;;5.90;99.90;;;;;;4958036;28;20259;-87
2023/02/15 13:04:12;;;;;;;13.85;9.77;;;6.00;99.90;;;;;;4965376;28;20042;-87
2023/02/15 13:06:49;;;;;;;15.18;10.63;;;6.20;99.90;;;;;;4978327;28;20050;-87
2023/02/15 13:09:37;;;;;;;14.50;10.60;;;6.30;99.90;;;;;;4976105;28;20043;-87
2023/02/15 13:12:23;;;;;;;14.70;10.20;;;6.30;99.90;;;;;;4979054;28;20053;-87
2023/02/15 13:14:52;;;;;;;15.80;10.80;;;6.20;99.90;;;;;;4976299;28;20062;-88
2023/02/15 13:17:34;;;;;;;9.70;8.10;;;6.40;99.90;;;;;;4962024;28;20027;-88
2023/02/15 13:20:18;;;;;;;;;;;6.60;99.90;;;;;;4975160;28;20061;-87
2023/02/15 13:22:48;;;;;;;12.95;9.93;;;6.50;99.90;;;;;;4977959;28;19910;-88
2023/02/15 13:25:26;;;;;;;10.55;7.93;;;6.60;99.90;;;;;;4953036;28;20031;-87
2023/02/15 13:28:02;;;;;;;12.90;9.55;;;6.50;99.90;;;;;;4982923;28;20039;-88
2023/02/15 13:30:37;;;;;;;14.07;7.68;;;6.40;99.90;;;;;;4978329;28;20035;-88
2023/02/15 13:33:15;;;;;;;10.65;8.88;;;6.50;99.90;;;;;;4961542;28;20047;-86
2023/02/15 13:35:55;;;;;;;14.20;8.73;;;6.50;99.90;;;;;;4957275;28;20040;-88
2023/02/15 13:38:43;;;;;;;13.82;10.25;;;6.80;99.90;;;;;;4974656;28;20219;-87
2023/02/15 13:41:46;;;;;;;13.93;9.30;;;6.80;99.90;;;;;;4978381;28;20035;-87
2023/02/15 13:44:44;;;;;;;13.48;9.23;;;6.90;99.90;;;;;;4955722;29;20042;-88
2023/02/15 13:47:15;;;;;;;11.68;8.02;;;7.10;99.90;;;;;;4956990;28;20050;-88
2023/02/15 13:50:22;;;;;;;12.15;9.50;;;7.20;99.90;;;;;;4978274;28;20039;-88
2023/02/15 13:53:24;;;;;;;14.70;9.15;;;7.10;99.90;;;;;;4955965;28;20039;-88
2023/02/15 13:56:01;;;;;;;10.55;8.27;;;7.20;99.90;;;;;;4956794;29;20058;-88
2023/02/15 13:59:05;;;;;;;14.77;9.88;;;7.30;99.90;;;;;;4971633;28;20039;-88
2023/02/15 14:01:56;;;;;;;11.60;8.27;;;7.20;99.90;;;;;;4962040;28;20046;-88